createdAt,value
2018-06-22T00:00:17.386Z,8.60
2018-06-22T00:02:46.490Z,13.03
2018-06-22T00:05:15.570Z,11.07
2018-06-22T00:07:44.722Z,10.27
2018-06-22T00:10:13.814Z,7.77
2018-06-22T00:12:43.019Z,12.20
2018-06-22T00:15:12.195Z,11.43
2018-06-22T00:17:41.341Z,11.33
2018-06-22T00:20:10.521Z,13.23
2018-06-22T00:22:39.818Z,18.20
2018-06-22T00:25:08.956Z,9.23
2018-06-22T00:27:38.052Z,14.07
2018-06-22T00:30:07.157Z,14.80
2018-06-22T00:32:36.271Z,12.23
2018-06-22T00:35:05.893Z,13.00
2018-06-22T00:37:35.007Z,14.50
2018-06-22T00:40:04.244Z,11.63
2018-06-22T00:42:33.385Z,17.47
2018-06-22T00:45:02.740Z,11.23
2018-06-22T00:47:31.838Z,12.43
2018-06-22T00:50:00.961Z,10.30
2018-06-22T00:52:30.161Z,15.23
2018-06-22T00:54:59.317Z,10.20
2018-06-22T00:57:28.401Z,10.43
2018-06-22T00:59:57.519Z,14.73
2018-06-22T01:02:26.671Z,11.60
2018-06-22T01:04:55.808Z,10.73
2018-06-22T01:07:24.965Z,10.67
2018-06-22T01:09:54.061Z,7.73
2018-06-22T01:12:23.304Z,13.07
2018-06-22T01:14:52.468Z,12.10
2018-06-22T01:17:21.664Z,10.60
2018-06-22T01:19:50.790Z,9.73
2018-06-22T01:22:20.244Z,9.40
2018-06-22T01:24:49.390Z,8.67
2018-06-22T01:27:18.581Z,9.63
2018-06-22T01:29:47.720Z,7.70
2018-06-22T01:32:16.873Z,8.97
2018-06-22T01:34:46.800Z,13.33
2018-06-22T01:37:15.969Z,19.20
2018-06-22T01:39:45.095Z,12.17
2018-06-22T01:42:14.203Z,12.23
2018-06-22T01:44:43.317Z,12.10
2018-06-22T01:47:12.447Z,11.17
2018-06-22T01:49:41.511Z,7.30
2018-06-22T01:52:10.616Z,13.73
2018-06-22T01:54:39.826Z,12.80
2018-06-22T01:57:08.923Z,11.10
2018-06-22T01:59:38.028Z,12.87
2018-06-22T02:02:07.150Z,12.77
2018-06-22T02:04:36.298Z,10.63
2018-06-22T02:07:05.779Z,10.40
2018-06-22T02:09:34.898Z,12.70
2018-06-22T02:12:04.080Z,7.80
2018-06-22T02:14:33.174Z,15.57
2018-06-22T02:17:02.340Z,11.07
2018-06-22T02:19:31.464Z,9.43
2018-06-22T02:22:00.575Z,10.63
2018-06-22T02:24:29.738Z,12.73
2018-06-22T02:26:59.174Z,12.33
2018-06-22T02:29:28.472Z,12.03
2018-06-22T02:31:57.620Z,11.43
2018-06-22T02:34:26.900Z,10.13
2018-06-22T02:36:56.026Z,9.73
2018-06-22T02:39:25.152Z,8.03
2018-06-22T02:41:54.267Z,10.93
2018-06-22T02:44:23.463Z,8.73
2018-06-22T02:46:52.576Z,9.07
2018-06-22T02:49:21.752Z,10.13
2018-06-22T02:51:50.867Z,11.00
2018-06-22T02:54:19.996Z,9.50
2018-06-22T02:56:49.088Z,14.60
2018-06-22T02:59:18.232Z,12.07
2018-06-22T03:01:47.393Z,9.93
2018-06-22T03:04:16.555Z,7.43
2018-06-22T03:06:46.070Z,9.43
2018-06-22T03:09:15.934Z,10.37
2018-06-22T03:11:45.099Z,9.00
2018-06-22T03:14:14.201Z,6.57
2018-06-22T03:16:43.372Z,8.67
2018-06-22T03:19:12.494Z,12.57
2018-06-22T03:21:41.619Z,10.90
2018-06-22T03:24:10.766Z,13.87
2018-06-22T03:26:39.963Z,10.57
2018-06-22T03:29:09.049Z,11.00
2018-06-22T03:31:38.167Z,13.60
2018-06-22T03:34:07.350Z,8.83
2018-06-22T03:36:36.490Z,12.20
2018-06-22T03:39:07.547Z,11.20
2018-06-22T03:41:36.745Z,7.03
2018-06-22T03:44:05.885Z,12.30
2018-06-22T03:46:35.403Z,9.77
2018-06-22T03:49:04.537Z,12.93
2018-06-22T03:51:33.645Z,9.37
2018-06-22T03:54:03.166Z,12.50
2018-06-22T03:56:32.243Z,8.60
2018-06-22T03:59:01.394Z,5.70
2018-06-22T04:01:30.532Z,12.30
2018-06-22T04:03:59.681Z,12.30
2018-06-22T04:06:29.009Z,11.60
2018-06-22T04:08:58.123Z,10.23
2018-06-22T04:11:27.284Z,8.13
2018-06-22T04:13:56.492Z,7.70
2018-06-22T04:16:25.570Z,9.67
2018-06-22T04:18:54.771Z,9.87
2018-06-22T04:21:23.921Z,10.17
2018-06-22T04:23:53.036Z,12.87
2018-06-22T04:26:22.142Z,14.63
2018-06-22T04:28:51.328Z,11.20
2018-06-22T04:31:21.860Z,10.00
2018-06-22T04:33:51.360Z,11.03
2018-06-22T04:36:20.560Z,8.80
2018-06-22T04:38:49.709Z,8.23
2018-06-22T04:41:18.898Z,17.07
2018-06-22T04:43:48.022Z,10.37
2018-06-22T04:46:17.110Z,10.33
2018-06-22T04:48:46.392Z,7.93
2018-06-22T04:51:15.527Z,12.40
2018-06-22T04:53:44.737Z,9.70
2018-06-22T04:56:13.871Z,13.63
2018-06-22T04:58:43.554Z,7.40
2018-06-22T05:01:12.683Z,11.90
2018-06-22T05:03:41.809Z,12.80
2018-06-22T05:06:11.144Z,13.50
2018-06-22T05:08:40.268Z,14.10
2018-06-22T05:11:09.424Z,12.20
2018-06-22T05:13:38.511Z,8.30
2018-06-22T05:16:07.587Z,8.30
2018-06-22T05:18:36.764Z,10.00
2018-06-22T05:21:06.371Z,11.43
2018-06-22T05:23:35.520Z,8.87
2018-06-22T05:26:05.067Z,12.33
2018-06-22T05:28:34.277Z,12.03
2018-06-22T05:31:03.609Z,11.50
2018-06-22T05:33:39.112Z,15.30
2018-06-22T05:36:08.232Z,12.67
2018-06-22T05:38:37.488Z,8.77
2018-06-22T05:41:06.871Z,9.63
2018-06-22T05:43:36.123Z,9.70
2018-06-22T05:46:05.729Z,11.57
2018-06-22T05:48:34.933Z,8.77
2018-06-22T05:51:04.115Z,13.80
2018-06-22T05:53:33.230Z,21.47
2018-06-22T05:56:02.344Z,8.77
2018-06-22T05:58:31.482Z,11.73
2018-06-22T06:01:00.655Z,11.97
2018-06-22T06:03:29.888Z,12.43
2018-06-22T06:05:59.477Z,7.53
2018-06-22T06:08:28.671Z,7.80
2018-06-22T06:11:14.477Z,13.13
2018-06-22T06:13:45.769Z,11.03
2018-06-22T06:16:14.968Z,8.30
2018-06-22T06:18:44.119Z,16.73
2018-06-22T06:21:13.272Z,10.40
2018-06-22T06:23:42.443Z,10.87
2018-06-22T06:26:11.870Z,12.73
2018-06-22T06:28:41.059Z,12.13
2018-06-22T06:31:10.939Z,10.90
2018-06-22T06:33:40.159Z,10.73
2018-06-22T06:36:09.309Z,9.83
2018-06-22T06:38:38.580Z,11.70
2018-06-22T06:41:07.809Z,10.00
2018-06-22T06:43:36.957Z,13.03
2018-06-22T06:46:06.084Z,11.13
2018-06-22T06:48:35.252Z,9.63
2018-06-22T13:52:20.335Z,6.00
2018-06-22T13:54:49.479Z,8.90
2018-06-22T13:57:18.631Z,9.53
2018-06-22T13:59:47.793Z,7.57
2018-06-22T14:02:16.970Z,7.67
2018-06-22T14:04:51.452Z,10.97
2018-06-22T14:07:20.608Z,8.93
2018-06-22T14:09:49.787Z,6.77
2018-06-22T14:12:18.941Z,8.63
2018-06-22T14:14:48.079Z,6.20
2018-06-22T14:17:17.314Z,10.53
2018-06-22T14:19:46.478Z,9.60
2018-06-22T14:22:15.744Z,8.90
2018-06-22T14:24:44.868Z,6.93
2018-06-22T14:27:14.037Z,9.27
2018-06-22T14:29:43.206Z,6.27
2018-06-22T14:32:12.418Z,5.87
2018-06-22T14:34:41.583Z,9.50
2018-06-22T14:37:10.826Z,8.07
2018-06-22T14:39:40.062Z,9.47
2018-06-22T14:42:09.139Z,8.13
2018-06-22T14:44:38.303Z,12.17
2018-06-22T14:47:07.433Z,6.47
2018-06-22T14:49:36.604Z,6.30
2018-06-22T14:52:05.853Z,4.10
2018-06-22T14:54:40.221Z,4.40
2018-06-22T14:57:14.551Z,9.10
2018-06-22T14:59:49.102Z,8.37
2018-06-22T15:02:23.609Z,4.27
2018-06-22T15:04:57.906Z,6.63
2018-06-22T15:07:32.234Z,5.13
2018-06-22T15:10:01.497Z,7.57
2018-06-22T15:12:30.637Z,5.57
2018-06-22T15:14:59.744Z,4.80
2018-06-22T15:17:28.982Z,8.23
2018-06-22T15:19:58.123Z,5.73
2018-06-22T15:22:27.276Z,3.77
2018-06-22T15:24:56.437Z,5.53
2018-06-22T15:27:25.593Z,7.33
2018-06-22T15:29:54.699Z,5.30
2018-06-22T15:32:23.968Z,8.77
2018-06-22T15:34:58.383Z,6.30
2018-06-22T15:37:32.800Z,6.90
2018-06-22T15:40:07.192Z,3.67
2018-06-22T15:42:41.540Z,5.60
2018-06-22T15:45:15.826Z,8.07
2018-06-22T15:48:49.746Z,6.83
2018-06-22T15:51:24.605Z,5.47
2018-06-22T15:53:59.057Z,7.33
2018-06-22T15:56:28.389Z,10.57
2018-06-22T15:58:57.621Z,7.03
2018-06-22T16:01:27.346Z,6.60
2018-06-22T16:03:57.934Z,6.07
2018-06-22T16:06:29.470Z,5.13
2018-06-22T16:08:59.624Z,4.27
2018-06-22T16:11:29.847Z,8.47
2018-06-22T16:14:04.355Z,6.00
2018-06-22T16:16:39.648Z,8.10
2018-06-22T16:19:14.006Z,6.07
2018-06-22T16:21:48.379Z,7.40
2018-06-22T16:24:22.812Z,6.90
2018-06-22T16:26:57.338Z,5.03
2018-06-22T16:29:26.553Z,6.63
2018-06-22T16:31:55.663Z,7.90
2018-06-22T16:34:24.806Z,7.50
2018-06-22T16:36:53.925Z,8.87
2018-06-22T16:39:23.084Z,9.13
2018-06-22T16:41:52.249Z,8.93
2018-06-22T16:44:21.459Z,7.57
2018-06-22T16:46:50.578Z,10.60
2018-06-22T16:49:19.739Z,7.50
2018-06-22T16:51:48.982Z,6.60
2018-06-22T16:54:18.026Z,8.53
2018-06-22T16:56:47.169Z,9.10
2018-06-22T16:59:16.350Z,8.83
2018-06-22T17:01:45.519Z,8.50
2018-06-22T17:04:16.120Z,8.30
2018-06-22T17:06:50.603Z,3.97
2018-06-22T17:09:25.009Z,9.37
2018-06-22T17:11:59.494Z,7.63
2018-06-22T17:14:33.969Z,7.53
2018-06-22T17:17:08.299Z,9.97
2018-06-22T17:19:37.394Z,8.97
2018-06-22T17:22:06.718Z,7.07
2018-06-22T17:24:35.843Z,6.13
2018-06-22T17:27:05.456Z,10.30
2018-06-22T17:29:34.616Z,11.33
2018-06-22T17:32:03.847Z,9.77
2018-06-22T17:34:33.045Z,7.67
2018-06-22T17:37:02.242Z,7.47
2018-06-22T17:39:31.473Z,7.07
2018-06-22T17:42:00.635Z,5.30
2018-06-22T17:44:29.846Z,6.50
2018-06-22T17:46:58.982Z,8.63
2018-06-22T17:49:28.253Z,6.57
2018-06-22T17:51:57.420Z,6.43
2018-06-22T17:54:26.624Z,9.10
2018-06-22T17:56:55.829Z,12.43
2018-06-22T17:59:30.398Z,8.70
2018-06-22T18:02:04.790Z,6.30
2018-06-22T18:04:40.630Z,9.57
2018-06-22T18:07:15.171Z,9.37
2018-06-22T18:09:49.420Z,12.63
2018-06-22T18:12:23.870Z,7.97
2018-06-22T18:14:53.054Z,7.20
2018-06-22T18:17:22.284Z,12.80
2018-06-22T18:19:51.782Z,6.37
2018-06-22T18:22:20.903Z,13.70
2018-06-22T18:24:50.180Z,9.40
2018-06-22T18:27:19.380Z,6.40
2018-06-22T18:29:48.567Z,7.20
2018-06-22T18:32:17.742Z,9.37
2018-06-22T18:34:46.998Z,8.80
2018-06-22T18:37:16.192Z,5.80
2018-06-22T18:39:45.373Z,9.77
2018-06-22T18:42:14.494Z,8.47
2018-06-22T18:44:43.655Z,7.87
2018-06-22T18:47:12.887Z,8.73
2018-06-22T18:49:42.256Z,9.03
2018-06-22T18:52:16.783Z,7.77
2018-06-22T18:54:51.322Z,9.93
2018-06-22T18:57:25.714Z,7.87
2018-06-22T19:00:57.592Z,9.00
2018-06-22T19:03:32.012Z,7.13
2018-06-22T19:06:01.227Z,9.80
2018-06-22T19:08:30.411Z,9.77
2018-06-22T19:10:59.575Z,9.37
2018-06-22T19:13:28.769Z,11.13
2018-06-22T19:15:58.034Z,12.00
2018-06-22T19:18:27.216Z,11.90
2018-06-22T19:20:56.394Z,13.37
2018-06-22T19:23:25.593Z,7.80
2018-06-22T19:25:54.891Z,6.33
2018-06-22T19:28:24.196Z,8.07
2018-06-22T19:30:53.443Z,8.83
2018-06-22T19:33:22.634Z,7.03
2018-06-22T19:35:52.379Z,11.17
2018-06-22T19:38:21.574Z,6.93
2018-06-22T19:40:50.741Z,8.77
2018-06-22T19:43:25.285Z,11.07
2018-06-22T19:45:59.651Z,7.30
2018-06-22T19:48:33.974Z,8.90
2018-06-22T19:51:08.579Z,9.90
2018-06-22T19:53:43.063Z,7.77
2018-06-22T19:56:12.262Z,10.37
2018-06-22T19:58:41.506Z,8.07
2018-06-22T20:01:10.690Z,10.97
2018-06-22T20:03:39.990Z,11.77
2018-06-22T20:06:10.548Z,10.27
2018-06-22T20:08:39.724Z,9.27
2018-06-22T20:11:09.762Z,8.07
2018-06-22T20:13:38.957Z,10.33
2018-06-22T20:16:08.184Z,10.67
2018-06-22T20:18:37.330Z,10.77
2018-06-22T20:21:07.763Z,7.63
2018-06-22T20:23:37.068Z,10.00
2018-06-22T20:26:06.420Z,13.73
2018-06-22T20:28:35.571Z,11.30
2018-06-22T20:31:05.159Z,13.77
2018-06-22T20:33:34.397Z,12.30
2018-06-22T20:36:08.924Z,13.30
2018-06-22T20:38:43.201Z,12.17
2018-06-22T20:41:20.393Z,12.40
2018-06-22T20:43:54.704Z,11.00
2018-06-22T20:46:29.341Z,13.87
2018-06-22T20:49:03.869Z,14.33
2018-06-22T20:51:39.597Z,15.83
2018-06-22T20:54:08.700Z,21.60
2018-06-22T20:56:37.857Z,16.10
2018-06-22T20:59:07.050Z,11.60
2018-06-22T21:01:37.336Z,10.90
2018-06-22T21:04:06.824Z,15.20
2018-06-22T21:06:36.006Z,18.03
2018-06-22T21:09:07.337Z,22.27
2018-06-22T21:11:36.578Z,11.80
2018-06-22T21:14:05.736Z,14.43
2018-06-22T21:16:35.445Z,15.63
2018-06-22T21:19:04.619Z,15.77
2018-06-22T21:21:38.990Z,18.00
2018-06-22T21:24:08.157Z,18.80
2018-06-22T21:26:37.301Z,15.70
2018-06-22T21:29:11.565Z,19.33
2018-06-22T21:31:45.799Z,17.57
2018-06-22T21:34:20.028Z,18.20
2018-06-22T21:36:54.597Z,17.83
2018-06-22T21:39:24.022Z,19.87
2018-06-22T21:41:53.138Z,18.00
2018-06-22T21:44:22.266Z,15.07
2018-06-22T21:46:51.425Z,17.00
2018-06-22T21:49:20.612Z,13.37
2018-06-22T21:51:49.849Z,16.13
2018-06-22T21:54:18.965Z,18.60
2018-06-22T21:56:48.240Z,17.57
2018-06-22T21:59:17.365Z,16.93
2018-06-22T22:01:46.552Z,14.03
2018-06-22T22:04:15.720Z,22.47
2018-06-22T22:06:44.866Z,20.37
2018-06-22T22:09:13.991Z,16.67
2018-06-22T22:11:48.265Z,17.37
2018-06-22T22:14:17.377Z,19.13
2018-06-22T22:16:46.515Z,21.03
2018-06-22T22:19:15.639Z,17.23
2018-06-22T22:21:44.805Z,12.00
2018-06-22T22:24:14.091Z,15.03
2018-06-22T22:26:43.205Z,17.27
2018-06-22T22:29:12.493Z,14.90
2018-06-22T22:31:41.610Z,11.77
2018-06-22T22:34:10.710Z,13.80
2018-06-22T22:36:39.905Z,14.63
2018-06-22T22:39:09.035Z,23.77
2018-06-22T22:41:38.443Z,14.90
2018-06-22T22:44:07.956Z,16.83
2018-06-22T22:46:37.331Z,19.50
2018-06-22T22:49:06.447Z,14.53
2018-06-22T22:51:35.601Z,15.77
2018-06-22T22:54:04.739Z,16.47
2018-06-22T22:56:33.835Z,14.93
2018-06-22T22:59:02.965Z,12.70
2018-06-22T23:01:32.107Z,16.30
2018-06-22T23:04:01.221Z,18.20
2018-06-22T23:06:30.328Z,24.60
2018-06-22T23:08:59.457Z,19.03
2018-06-22T23:11:28.597Z,15.93
2018-06-22T23:13:57.830Z,15.53
2018-06-22T23:16:26.989Z,18.80
2018-06-22T23:18:56.184Z,21.83
2018-06-22T23:21:25.274Z,14.83
2018-06-22T23:23:54.504Z,17.67
2018-06-22T23:26:23.736Z,15.53
2018-06-22T23:28:52.837Z,18.47
2018-06-22T23:31:21.972Z,16.93
2018-06-22T23:33:51.106Z,17.20
2018-06-22T23:36:20.210Z,12.73
2018-06-22T23:38:49.372Z,22.07
2018-06-22T23:41:18.519Z,18.57
2018-06-22T23:43:47.634Z,17.83
2018-06-22T23:46:16.822Z,17.73
2018-06-22T23:48:45.971Z,17.83
2018-06-22T23:51:15.081Z,18.77
2018-06-22T23:53:44.215Z,16.83
2018-06-22T23:56:13.360Z,14.27
2018-06-22T23:58:42.516Z,15.87
